sensor_id;sensor_type;location;lat;lon;timestamp;P1;durP1;ratioP1;P2;durP2;ratioP2
17592;SDS011;8915;51.760;14.300;2023-01-23T00:02:24;35.57;;;15.50;;
17592;SDS011;8915;51.760;14.300;2023-01-23T00:04:51;37.60;;;16.00;;
17592;SDS011;8915;51.760;14.300;2023-01-23T00:07:17;36.10;;;16.47;;
17592;SDS011;8915;51.760;14.300;2023-01-23T00:09:44;39.07;;;15.20;;
17592;SDS011;8915;51.760;14.300;2023-01-23T00:12:10;34.87;;;16.10;;
17592;SDS011;8915;51.760;14.300;2023-01-23T00:14:38;31.60;;;15.33;;
17592;SDS011;8915;51.760;14.300;2023-01-23T00:17:05;30.67;;;15.67;;
17592;SDS011;8915;51.760;14.300;2023-01-23T00:19:31;32.10;;;16.20;;
17592;SDS011;8915;51.760;14.300;2023-01-23T00:21:58;32.27;;;15.63;;
17592;SDS011;8915;51.760;14.300;2023-01-23T00:24:25;36.63;;;15.93;;
17592;SDS011;8915;51.760;14.300;2023-01-23T00:26:51;35.93;;;16.83;;
17592;SDS011;8915;51.760;14.300;2023-01-23T00:29:20;37.97;;;16.07;;
17592;SDS011;8915;51.760;14.300;2023-01-23T00:31:48;40.73;;;18.13;;
17592;SDS011;8915;51.760;14.300;2023-01-23T00:34:14;40.87;;;16.77;;
17592;SDS011;8915;51.760;14.300;2023-01-23T00:36:42;35.53;;;15.33;;
17592;SDS011;8915;51.760;14.300;2023-01-23T00:39:11;30.50;;;14.97;;
17592;SDS011;8915;51.760;14.300;2023-01-23T00:41:42;33.87;;;15.33;;
17592;SDS011;8915;51.760;14.300;2023-01-23T00:44:12;35.63;;;16.13;;
17592;SDS011;8915;51.760;14.300;2023-01-23T00:46:39;39.50;;;17.87;;
17592;SDS011;8915;51.760;14.300;2023-01-23T00:49:06;37.23;;;16.70;;
17592;SDS011;8915;51.760;14.300;2023-01-23T00:51:33;41.27;;;17.27;;
17592;SDS011;8915;51.760;14.300;2023-01-23T00:54:00;38.47;;;17.73;;
17592;SDS011;8915;51.760;14.300;2023-01-23T00:56:28;35.23;;;16.60;;
17592;SDS011;8915;51.760;14.300;2023-01-23T00:58:55;44.33;;;16.97;;
17592;SDS011;8915;51.760;14.300;2023-01-23T01:01:21;42.57;;;18.83;;
17592;SDS011;8915;51.760;14.300;2023-01-23T01:03:48;45.20;;;18.50;;
17592;SDS011;8915;51.760;14.300;2023-01-23T01:06:16;40.33;;;18.37;;
17592;SDS011;8915;51.760;14.300;2023-01-23T01:08:42;46.63;;;17.73;;
17592;SDS011;8915;51.760;14.300;2023-01-23T01:11:09;44.37;;;17.63;;
17592;SDS011;8915;51.760;14.300;2023-01-23T01:13:36;40.03;;;16.97;;
17592;SDS011;8915;51.760;14.300;2023-01-23T01:16:02;37.10;;;17.40;;
17592;SDS011;8915;51.760;14.300;2023-01-23T01:18:29;43.30;;;16.70;;
17592;SDS011;8915;51.760;14.300;2023-01-23T01:20:56;46.30;;;17.47;;
17592;SDS011;8915;51.760;14.300;2023-01-23T01:23:24;40.30;;;17.57;;
17592;SDS011;8915;51.760;14.300;2023-01-23T01:25:51;39.67;;;16.73;;
17592;SDS011;8915;51.760;14.300;2023-01-23T01:28:19;43.27;;;17.60;;
17592;SDS011;8915;51.760;14.300;2023-01-23T01:30:46;38.77;;;17.83;;
17592;SDS011;8915;51.760;14.300;2023-01-23T01:33:13;42.17;;;18.10;;
17592;SDS011;8915;51.760;14.300;2023-01-23T01:35:40;40.87;;;17.53;;
17592;SDS011;8915;51.760;14.300;2023-01-23T01:38:07;39.03;;;17.30;;
17592;SDS011;8915;51.760;14.300;2023-01-23T01:40:36;40.20;;;16.87;;
17592;SDS011;8915;51.760;14.300;2023-01-23T01:43:03;39.03;;;17.10;;
17592;SDS011;8915;51.760;14.300;2023-01-23T01:48:30;43.57;;;19.40;;
17592;SDS011;8915;51.760;14.300;2023-01-23T01:50:59;53.37;;;22.47;;
17592;SDS011;8915;51.760;14.300;2023-01-23T01:53:28;47.67;;;21.87;;
17592;SDS011;8915;51.760;14.300;2023-01-23T01:55:58;54.93;;;24.83;;
17592;SDS011;8915;51.760;14.300;2023-01-23T01:58:26;55.43;;;21.03;;
17592;SDS011;8915;51.760;14.300;2023-01-23T02:00:55;48.97;;;23.20;;
17592;SDS011;8915;51.760;14.300;2023-01-23T02:03:22;57.83;;;22.70;;
17592;SDS011;8915;51.760;14.300;2023-01-23T02:05:49;45.67;;;20.07;;
17592;SDS011;8915;51.760;14.300;2023-01-23T02:08:17;53.13;;;22.57;;
17592;SDS011;8915;51.760;14.300;2023-01-23T02:10:47;54.53;;;22.37;;
17592;SDS011;8915;51.760;14.300;2023-01-23T02:13:25;46.07;;;19.60;;
17592;SDS011;8915;51.760;14.300;2023-01-23T02:15:55;42.50;;;20.83;;
17592;SDS011;8915;51.760;14.300;2023-01-23T02:18:23;64.77;;;25.30;;
17592;SDS011;8915;51.760;14.300;2023-01-23T02:20:51;49.97;;;22.47;;
17592;SDS011;8915;51.760;14.300;2023-01-23T02:23:20;49.30;;;22.90;;
17592;SDS011;8915;51.760;14.300;2023-01-23T02:25:58;38.17;;;18.47;;
17592;SDS011;8915;51.760;14.300;2023-01-23T02:28:37;41.37;;;20.00;;
17592;SDS011;8915;51.760;14.300;2023-01-23T02:31:07;51.67;;;18.40;;
17592;SDS011;8915;51.760;14.300;2023-01-23T02:33:42;40.97;;;18.03;;
17592;SDS011;8915;51.760;14.300;2023-01-23T02:36:11;47.40;;;18.70;;
17592;SDS011;8915;51.760;14.300;2023-01-23T02:38:39;44.43;;;17.40;;
17592;SDS011;8915;51.760;14.300;2023-01-23T02:41:16;45.57;;;17.77;;
17592;SDS011;8915;51.760;14.300;2023-01-23T02:43:45;35.50;;;17.37;;
17592;SDS011;8915;51.760;14.300;2023-01-23T02:46:14;44.77;;;19.87;;
17592;SDS011;8915;51.760;14.300;2023-01-23T02:48:43;36.87;;;17.67;;
17592;SDS011;8915;51.760;14.300;2023-01-23T02:51:09;38.67;;;17.07;;
17592;SDS011;8915;51.760;14.300;2023-01-23T02:53:37;41.50;;;18.33;;
17592;SDS011;8915;51.760;14.300;2023-01-23T02:56:06;42.50;;;19.20;;
17592;SDS011;8915;51.760;14.300;2023-01-23T02:58:34;41.03;;;19.27;;
17592;SDS011;8915;51.760;14.300;2023-01-23T03:01:21;38.10;;;17.33;;
17592;SDS011;8915;51.760;14.300;2023-01-23T03:03:48;42.30;;;17.87;;
17592;SDS011;8915;51.760;14.300;2023-01-23T03:06:17;39.40;;;18.17;;
17592;SDS011;8915;51.760;14.300;2023-01-23T03:08:48;40.97;;;18.07;;
17592;SDS011;8915;51.760;14.300;2023-01-23T03:11:15;41.23;;;17.83;;
17592;SDS011;8915;51.760;14.300;2023-01-23T03:13:44;37.53;;;17.27;;
17592;SDS011;8915;51.760;14.300;2023-01-23T03:16:11;43.87;;;17.63;;
17592;SDS011;8915;51.760;14.300;2023-01-23T03:18:38;41.70;;;18.47;;
17592;SDS011;8915;51.760;14.300;2023-01-23T03:21:04;38.20;;;17.70;;
17592;SDS011;8915;51.760;14.300;2023-01-23T03:23:32;38.23;;;18.63;;
17592;SDS011;8915;51.760;14.300;2023-01-23T03:26:00;39.50;;;17.33;;
17592;SDS011;8915;51.760;14.300;2023-01-23T03:28:29;41.70;;;18.40;;
17592;SDS011;8915;51.760;14.300;2023-01-23T03:31:15;40.13;;;18.13;;
17592;SDS011;8915;51.760;14.300;2023-01-23T03:33:43;43.20;;;17.53;;
17592;SDS011;8915;51.760;14.300;2023-01-23T03:36:11;41.53;;;18.30;;
17592;SDS011;8915;51.760;14.300;2023-01-23T03:38:38;38.30;;;17.47;;
17592;SDS011;8915;51.760;14.300;2023-01-23T03:41:27;34.10;;;15.93;;
17592;SDS011;8915;51.760;14.300;2023-01-23T03:43:56;44.63;;;16.87;;
17592;SDS011;8915;51.760;14.300;2023-01-23T03:46:25;45.00;;;18.63;;
17592;SDS011;8915;51.760;14.300;2023-01-23T03:48:52;44.80;;;19.63;;
17592;SDS011;8915;51.760;14.300;2023-01-23T03:51:18;39.43;;;17.83;;
17592;SDS011;8915;51.760;14.300;2023-01-23T03:53:44;43.87;;;17.60;;
17592;SDS011;8915;51.760;14.300;2023-01-23T03:56:11;44.33;;;19.20;;
17592;SDS011;8915;51.760;14.300;2023-01-23T03:58:39;38.27;;;17.77;;
17592;SDS011;8915;51.760;14.300;2023-01-23T04:01:06;44.30;;;19.03;;
17592;SDS011;8915;51.760;14.300;2023-01-23T04:03:38;48.90;;;19.67;;
17592;SDS011;8915;51.760;14.300;2023-01-23T04:06:05;50.30;;;19.57;;
17592;SDS011;8915;51.760;14.300;2023-01-23T04:08:31;38.47;;;18.27;;
17592;SDS011;8915;51.760;14.300;2023-01-23T04:11:01;43.43;;;19.30;;
17592;SDS011;8915;51.760;14.300;2023-01-23T04:13:29;40.93;;;18.13;;
17592;SDS011;8915;51.760;14.300;2023-01-23T04:15:57;43.77;;;18.23;;
17592;SDS011;8915;51.760;14.300;2023-01-23T04:18:24;42.30;;;18.13;;
17592;SDS011;8915;51.760;14.300;2023-01-23T04:20:52;48.40;;;18.13;;
17592;SDS011;8915;51.760;14.300;2023-01-23T04:23:19;49.73;;;18.47;;
17592;SDS011;8915;51.760;14.300;2023-01-23T04:25:46;43.00;;;18.50;;
17592;SDS011;8915;51.760;14.300;2023-01-23T04:28:13;42.00;;;18.13;;
17592;SDS011;8915;51.760;14.300;2023-01-23T04:30:40;43.60;;;19.00;;
17592;SDS011;8915;51.760;14.300;2023-01-23T04:33:15;46.60;;;18.90;;
17592;SDS011;8915;51.760;14.300;2023-01-23T04:35:47;47.73;;;18.67;;
17592;SDS011;8915;51.760;14.300;2023-01-23T04:38:16;47.10;;;18.13;;
17592;SDS011;8915;51.760;14.300;2023-01-23T04:40:43;51.33;;;20.03;;
17592;SDS011;8915;51.760;14.300;2023-01-23T04:43:10;46.83;;;22.10;;
17592;SDS011;8915;51.760;14.300;2023-01-23T04:45:42;48.53;;;21.33;;
17592;SDS011;8915;51.760;14.300;2023-01-23T04:48:32;49.67;;;21.70;;
17592;SDS011;8915;51.760;14.300;2023-01-23T04:50:58;55.17;;;18.73;;
17592;SDS011;8915;51.760;14.300;2023-01-23T04:53:26;45.63;;;19.30;;
17592;SDS011;8915;51.760;14.300;2023-01-23T04:55:58;49.93;;;21.50;;
17592;SDS011;8915;51.760;14.300;2023-01-23T04:58:25;46.77;;;19.20;;
17592;SDS011;8915;51.760;14.300;2023-01-23T05:00:59;44.00;;;18.80;;
17592;SDS011;8915;51.760;14.300;2023-01-23T05:03:30;45.63;;;18.70;;
17592;SDS011;8915;51.760;14.300;2023-01-23T05:05:57;45.50;;;18.97;;
17592;SDS011;8915;51.760;14.300;2023-01-23T05:08:24;38.87;;;18.60;;
17592;SDS011;8915;51.760;14.300;2023-01-23T05:11:06;46.67;;;19.23;;
17592;SDS011;8915;51.760;14.300;2023-01-23T05:13:32;51.93;;;19.97;;
17592;SDS011;8915;51.760;14.300;2023-01-23T05:16:00;47.17;;;18.90;;
17592;SDS011;8915;51.760;14.300;2023-01-23T05:18:36;44.77;;;18.17;;
17592;SDS011;8915;51.760;14.300;2023-01-23T05:21:02;46.93;;;19.60;;
17592;SDS011;8915;51.760;14.300;2023-01-23T05:23:29;47.50;;;21.23;;
17592;SDS011;8915;51.760;14.300;2023-01-23T05:25:56;47.33;;;19.80;;
17592;SDS011;8915;51.760;14.300;2023-01-23T05:28:26;43.73;;;18.80;;
17592;SDS011;8915;51.760;14.300;2023-01-23T05:30:54;49.20;;;20.57;;
17592;SDS011;8915;51.760;14.300;2023-01-23T05:33:30;47.33;;;19.57;;
17592;SDS011;8915;51.760;14.300;2023-01-23T05:35:57;52.47;;;19.90;;
17592;SDS011;8915;51.760;14.300;2023-01-23T05:38:24;52.10;;;19.47;;
17592;SDS011;8915;51.760;14.300;2023-01-23T05:40:52;55.73;;;19.27;;
17592;SDS011;8915;51.760;14.300;2023-01-23T05:43:44;51.43;;;21.10;;
17592;SDS011;8915;51.760;14.300;2023-01-23T05:46:13;43.37;;;17.43;;
17592;SDS011;8915;51.760;14.300;2023-01-23T05:48:47;48.33;;;19.53;;
17592;SDS011;8915;51.760;14.300;2023-01-23T05:51:15;49.23;;;20.73;;
17592;SDS011;8915;51.760;14.300;2023-01-23T05:53:41;48.73;;;18.60;;
17592;SDS011;8915;51.760;14.300;2023-01-23T05:56:08;45.97;;;20.30;;
17592;SDS011;8915;51.760;14.300;2023-01-23T05:58:47;48.63;;;19.27;;
17592;SDS011;8915;51.760;14.300;2023-01-23T06:01:23;50.03;;;19.73;;
17592;SDS011;8915;51.760;14.300;2023-01-23T06:04:15;44.70;;;19.07;;
17592;SDS011;8915;51.760;14.300;2023-01-23T06:06:57;54.40;;;19.93;;
17592;SDS011;8915;51.760;14.300;2023-01-23T06:09:24;51.87;;;19.53;;
17592;SDS011;8915;51.760;14.300;2023-01-23T06:11:50;46.77;;;17.57;;
17592;SDS011;8915;51.760;14.300;2023-01-23T06:14:18;45.97;;;19.43;;
17592;SDS011;8915;51.760;14.300;2023-01-23T06:16:44;50.13;;;19.10;;
17592;SDS011;8915;51.760;14.300;2023-01-23T06:19:11;48.83;;;21.00;;
17592;SDS011;8915;51.760;14.300;2023-01-23T06:21:39;48.73;;;19.40;;
17592;SDS011;8915;51.760;14.300;2023-01-23T06:24:05;49.00;;;19.43;;
17592;SDS011;8915;51.760;14.300;2023-01-23T06:26:32;42.00;;;18.57;;
17592;SDS011;8915;51.760;14.300;2023-01-23T06:28:58;49.70;;;18.93;;
17592;SDS011;8915;51.760;14.300;2023-01-23T06:31:26;48.30;;;19.37;;
17592;SDS011;8915;51.760;14.300;2023-01-23T06:33:58;53.37;;;19.97;;
17592;SDS011;8915;51.760;14.300;2023-01-23T06:36:29;43.43;;;19.40;;
17592;SDS011;8915;51.760;14.300;2023-01-23T06:38:57;45.17;;;18.77;;
17592;SDS011;8915;51.760;14.300;2023-01-23T06:41:29;46.77;;;17.90;;
17592;SDS011;8915;51.760;14.300;2023-01-23T06:44:00;44.63;;;19.63;;
17592;SDS011;8915;51.760;14.300;2023-01-23T06:46:29;53.53;;;20.83;;
17592;SDS011;8915;51.760;14.300;2023-01-23T06:48:55;54.23;;;21.00;;
17592;SDS011;8915;51.760;14.300;2023-01-23T06:51:22;48.17;;;20.67;;
17592;SDS011;8915;51.760;14.300;2023-01-23T06:53:49;53.23;;;21.27;;
17592;SDS011;8915;51.760;14.300;2023-01-23T06:56:15;47.13;;;18.90;;
17592;SDS011;8915;51.760;14.300;2023-01-23T06:58:43;47.30;;;20.43;;
17592;SDS011;8915;51.760;14.300;2023-01-23T07:01:18;56.13;;;21.43;;
17592;SDS011;8915;51.760;14.300;2023-01-23T07:04:05;50.90;;;21.37;;
17592;SDS011;8915;51.760;14.300;2023-01-23T07:06:33;54.93;;;21.70;;
17592;SDS011;8915;51.760;14.300;2023-01-23T07:08:59;54.80;;;21.47;;
17592;SDS011;8915;51.760;14.300;2023-01-23T07:11:29;44.60;;;21.07;;
17592;SDS011;8915;51.760;14.300;2023-01-23T07:13:56;51.90;;;21.13;;
17592;SDS011;8915;51.760;14.300;2023-01-23T07:16:24;53.87;;;20.87;;
17592;SDS011;8915;51.760;14.300;2023-01-23T07:18:53;50.33;;;21.03;;
17592;SDS011;8915;51.760;14.300;2023-01-23T07:21:20;56.57;;;23.33;;
17592;SDS011;8915;51.760;14.300;2023-01-23T07:23:47;46.50;;;20.70;;
17592;SDS011;8915;51.760;14.300;2023-01-23T07:26:14;49.43;;;21.23;;
17592;SDS011;8915;51.760;14.300;2023-01-23T07:28:41;51.97;;;20.87;;
17592;SDS011;8915;51.760;14.300;2023-01-23T07:31:07;48.07;;;20.67;;
17592;SDS011;8915;51.760;14.300;2023-01-23T07:33:34;46.63;;;20.80;;
17592;SDS011;8915;51.760;14.300;2023-01-23T07:36:03;51.17;;;20.73;;
17592;SDS011;8915;51.760;14.300;2023-01-23T07:38:31;52.40;;;20.20;;
17592;SDS011;8915;51.760;14.300;2023-01-23T07:40:58;48.97;;;21.17;;
17592;SDS011;8915;51.760;14.300;2023-01-23T07:43:24;43.83;;;19.37;;
17592;SDS011;8915;51.760;14.300;2023-01-23T07:45:51;47.43;;;21.20;;
17592;SDS011;8915;51.760;14.300;2023-01-23T07:48:17;52.57;;;20.07;;
17592;SDS011;8915;51.760;14.300;2023-01-23T07:50:44;49.63;;;20.00;;
17592;SDS011;8915;51.760;14.300;2023-01-23T07:53:10;51.93;;;21.60;;
17592;SDS011;8915;51.760;14.300;2023-01-23T07:55:38;45.07;;;20.87;;
17592;SDS011;8915;51.760;14.300;2023-01-23T07:58:04;48.63;;;19.97;;
17592;SDS011;8915;51.760;14.300;2023-01-23T08:00:31;44.27;;;21.43;;
17592;SDS011;8915;51.760;14.300;2023-01-23T08:02:57;49.67;;;21.73;;
17592;SDS011;8915;51.760;14.300;2023-01-23T08:05:23;49.93;;;20.37;;
17592;SDS011;8915;51.760;14.300;2023-01-23T08:07:50;45.23;;;20.53;;
17592;SDS011;8915;51.760;14.300;2023-01-23T08:10:16;44.33;;;19.57;;
17592;SDS011;8915;51.760;14.300;2023-01-23T08:12:44;49.57;;;20.80;;
17592;SDS011;8915;51.760;14.300;2023-01-23T08:15:10;40.77;;;19.77;;
17592;SDS011;8915;51.760;14.300;2023-01-23T08:17:37;48.07;;;19.73;;
17592;SDS011;8915;51.760;14.300;2023-01-23T08:20:04;49.97;;;20.30;;
17592;SDS011;8915;51.760;14.300;2023-01-23T08:22:31;49.73;;;21.37;;
17592;SDS011;8915;51.760;14.300;2023-01-23T08:24:57;50.17;;;20.57;;
17592;SDS011;8915;51.760;14.300;2023-01-23T08:27:23;50.47;;;22.27;;
17592;SDS011;8915;51.760;14.300;2023-01-23T08:29:51;42.33;;;18.40;;
17592;SDS011;8915;51.760;14.300;2023-01-23T08:32:17;49.70;;;19.87;;
17592;SDS011;8915;51.760;14.300;2023-01-23T08:34:44;54.70;;;22.17;;
17592;SDS011;8915;51.760;14.300;2023-01-23T08:37:11;49.30;;;21.13;;
17592;SDS011;8915;51.760;14.300;2023-01-23T08:39:37;43.43;;;18.93;;
17592;SDS011;8915;51.760;14.300;2023-01-23T08:42:03;48.57;;;20.80;;
17592;SDS011;8915;51.760;14.300;2023-01-23T08:44:30;51.30;;;20.90;;
17592;SDS011;8915;51.760;14.300;2023-01-23T08:47:00;50.73;;;19.93;;
17592;SDS011;8915;51.760;14.300;2023-01-23T08:49:27;53.13;;;21.67;;
17592;SDS011;8915;51.760;14.300;2023-01-23T08:51:54;46.90;;;21.60;;
17592;SDS011;8915;51.760;14.300;2023-01-23T08:54:23;52.60;;;21.13;;
17592;SDS011;8915;51.760;14.300;2023-01-23T08:56:49;51.00;;;20.37;;
17592;SDS011;8915;51.760;14.300;2023-01-23T08:59:15;50.57;;;22.30;;
17592;SDS011;8915;51.760;14.300;2023-01-23T09:01:42;49.23;;;19.83;;
17592;SDS011;8915;51.760;14.300;2023-01-23T09:04:11;50.00;;;20.03;;
17592;SDS011;8915;51.760;14.300;2023-01-23T09:06:37;45.77;;;20.13;;
17592;SDS011;8915;51.760;14.300;2023-01-23T09:09:04;50.23;;;21.50;;
17592;SDS011;8915;51.760;14.300;2023-01-23T09:11:30;39.77;;;19.97;;
17592;SDS011;8915;51.760;14.300;2023-01-23T09:13:57;53.90;;;23.37;;
17592;SDS011;8915;51.760;14.300;2023-01-23T09:16:23;52.50;;;22.40;;
17592;SDS011;8915;51.760;14.300;2023-01-23T09:18:50;52.63;;;22.37;;
17592;SDS011;8915;51.760;14.300;2023-01-23T09:21:17;46.93;;;21.50;;
17592;SDS011;8915;51.760;14.300;2023-01-23T09:23:44;48.37;;;21.03;;
17592;SDS011;8915;51.760;14.300;2023-01-23T09:26:11;45.10;;;19.57;;
17592;SDS011;8915;51.760;14.300;2023-01-23T09:28:39;52.20;;;21.00;;
17592;SDS011;8915;51.760;14.300;2023-01-23T09:31:07;50.40;;;20.50;;
17592;SDS011;8915;51.760;14.300;2023-01-23T09:33:35;59.23;;;21.27;;
17592;SDS011;8915;51.760;14.300;2023-01-23T09:36:02;46.93;;;19.77;;
17592;SDS011;8915;51.760;14.300;2023-01-23T09:38:35;42.50;;;20.27;;
17592;SDS011;8915;51.760;14.300;2023-01-23T09:41:06;51.43;;;22.80;;
17592;SDS011;8915;51.760;14.300;2023-01-23T09:43:34;44.00;;;20.00;;
17592;SDS011;8915;51.760;14.300;2023-01-23T09:46:07;46.10;;;20.93;;
17592;SDS011;8915;51.760;14.300;2023-01-23T09:48:42;47.17;;;19.57;;
17592;SDS011;8915;51.760;14.300;2023-01-23T09:51:12;52.43;;;21.47;;
17592;SDS011;8915;51.760;14.300;2023-01-23T09:53:46;46.17;;;20.63;;
17592;SDS011;8915;51.760;14.300;2023-01-23T09:56:17;51.07;;;20.67;;
17592;SDS011;8915;51.760;14.300;2023-01-23T09:58:57;49.23;;;21.13;;
17592;SDS011;8915;51.760;14.300;2023-01-23T10:01:27;51.13;;;20.47;;
17592;SDS011;8915;51.760;14.300;2023-01-23T10:03:55;50.60;;;20.27;;
17592;SDS011;8915;51.760;14.300;2023-01-23T10:06:23;47.90;;;19.90;;
17592;SDS011;8915;51.760;14.300;2023-01-23T10:09:00;46.03;;;20.70;;
17592;SDS011;8915;51.760;14.300;2023-01-23T10:11:44;51.57;;;20.73;;
17592;SDS011;8915;51.760;14.300;2023-01-23T10:14:27;54.83;;;21.67;;
17592;SDS011;8915;51.760;14.300;2023-01-23T10:17:11;45.13;;;19.97;;
17592;SDS011;8915;51.760;14.300;2023-01-23T10:19:54;50.67;;;20.27;;
17592;SDS011;8915;51.760;14.300;2023-01-23T10:22:40;49.43;;;19.97;;
17592;SDS011;8915;51.760;14.300;2023-01-23T10:25:13;55.57;;;21.97;;
17592;SDS011;8915;51.760;14.300;2023-01-23T10:27:44;49.53;;;21.37;;
17592;SDS011;8915;51.760;14.300;2023-01-23T10:32:58;49.77;;;19.53;;
17592;SDS011;8915;51.760;14.300;2023-01-23T10:35:28;57.90;;;19.90;;
17592;SDS011;8915;51.760;14.300;2023-01-23T10:38:01;46.60;;;20.87;;
17592;SDS011;8915;51.760;14.300;2023-01-23T10:40:33;46.77;;;18.70;;
17592;SDS011;8915;51.760;14.300;2023-01-23T10:43:18;46.03;;;18.60;;
17592;SDS011;8915;51.760;14.300;2023-01-23T10:45:46;40.73;;;18.93;;
17592;SDS011;8915;51.760;14.300;2023-01-23T10:48:27;46.40;;;20.27;;
17592;SDS011;8915;51.760;14.300;2023-01-23T10:51:03;44.70;;;19.43;;
17592;SDS011;8915;51.760;14.300;2023-01-23T10:53:29;46.87;;;19.73;;
17592;SDS011;8915;51.760;14.300;2023-01-23T10:55:57;47.77;;;19.67;;
17592;SDS011;8915;51.760;14.300;2023-01-23T10:58:27;51.63;;;20.17;;
17592;SDS011;8915;51.760;14.300;2023-01-23T11:00:58;45.43;;;19.60;;
17592;SDS011;8915;51.760;14.300;2023-01-23T11:03:29;45.57;;;19.73;;
17592;SDS011;8915;51.760;14.300;2023-01-23T11:06:00;44.83;;;19.33;;
17592;SDS011;8915;51.760;14.300;2023-01-23T11:08:28;42.47;;;19.43;;
17592;SDS011;8915;51.760;14.300;2023-01-23T11:11:11;40.97;;;19.00;;
17592;SDS011;8915;51.760;14.300;2023-01-23T11:13:44;43.27;;;19.23;;
17592;SDS011;8915;51.760;14.300;2023-01-23T11:16:12;46.67;;;20.13;;
17592;SDS011;8915;51.760;14.300;2023-01-23T11:18:40;40.40;;;18.43;;
17592;SDS011;8915;51.760;14.300;2023-01-23T11:21:18;43.83;;;18.70;;
17592;SDS011;8915;51.760;14.300;2023-01-23T11:23:45;39.20;;;18.33;;
17592;SDS011;8915;51.760;14.300;2023-01-23T11:28:57;40.53;;;18.80;;
17592;SDS011;8915;51.760;14.300;2023-01-23T11:31:23;41.80;;;18.07;;
17592;SDS011;8915;51.760;14.300;2023-01-23T11:33:54;38.57;;;18.80;;
17592;SDS011;8915;51.760;14.300;2023-01-23T11:36:27;41.67;;;18.33;;
17592;SDS011;8915;51.760;14.300;2023-01-23T11:39:02;36.53;;;17.30;;
17592;SDS011;8915;51.760;14.300;2023-01-23T11:41:42;38.27;;;17.53;;
17592;SDS011;8915;51.760;14.300;2023-01-23T11:44:12;37.43;;;17.13;;
17592;SDS011;8915;51.760;14.300;2023-01-23T11:46:52;39.07;;;18.37;;
17592;SDS011;8915;51.760;14.300;2023-01-23T11:49:50;36.27;;;17.70;;
17592;SDS011;8915;51.760;14.300;2023-01-23T11:52:30;38.17;;;16.97;;
17592;SDS011;8915;51.760;14.300;2023-01-23T11:55:12;33.33;;;16.47;;
17592;SDS011;8915;51.760;14.300;2023-01-23T11:57:56;29.20;;;15.27;;
17592;SDS011;8915;51.760;14.300;2023-01-23T12:00:31;42.67;;;17.63;;
17592;SDS011;8915;51.760;14.300;2023-01-23T12:03:09;33.97;;;17.10;;
17592;SDS011;8915;51.760;14.300;2023-01-23T12:06:01;35.13;;;17.50;;
17592;SDS011;8915;51.760;14.300;2023-01-23T12:08:42;36.47;;;16.67;;
17592;SDS011;8915;51.760;14.300;2023-01-23T12:11:15;33.87;;;17.00;;
17592;SDS011;8915;51.760;14.300;2023-01-23T12:13:51;37.10;;;17.70;;
17592;SDS011;8915;51.760;14.300;2023-01-23T12:16:25;39.90;;;18.70;;
17592;SDS011;8915;51.760;14.300;2023-01-23T12:19:04;43.27;;;18.17;;
17592;SDS011;8915;51.760;14.300;2023-01-23T12:21:43;40.23;;;18.23;;
17592;SDS011;8915;51.760;14.300;2023-01-23T12:24:16;33.50;;;16.23;;
17592;SDS011;8915;51.760;14.300;2023-01-23T12:26:56;33.27;;;17.63;;
17592;SDS011;8915;51.760;14.300;2023-01-23T12:29:31;32.60;;;17.30;;
17592;SDS011;8915;51.760;14.300;2023-01-23T12:32:14;31.77;;;16.53;;
17592;SDS011;8915;51.760;14.300;2023-01-23T12:34:59;36.00;;;17.40;;
17592;SDS011;8915;51.760;14.300;2023-01-23T12:37:56;35.93;;;16.23;;
17592;SDS011;8915;51.760;14.300;2023-01-23T12:40:36;33.33;;;16.77;;
17592;SDS011;8915;51.760;14.300;2023-01-23T12:43:08;36.63;;;17.27;;
17592;SDS011;8915;51.760;14.300;2023-01-23T12:45:42;30.77;;;16.10;;
17592;SDS011;8915;51.760;14.300;2023-01-23T12:48:15;34.53;;;16.30;;
17592;SDS011;8915;51.760;14.300;2023-01-23T12:50:46;29.97;;;17.13;;
17592;SDS011;8915;51.760;14.300;2023-01-23T12:53:16;31.73;;;17.23;;
17592;SDS011;8915;51.760;14.300;2023-01-23T12:55:48;29.97;;;15.63;;
17592;SDS011;8915;51.760;14.300;2023-01-23T12:58:20;30.10;;;16.30;;
17592;SDS011;8915;51.760;14.300;2023-01-23T13:00:53;33.80;;;17.40;;
17592;SDS011;8915;51.760;14.300;2023-01-23T13:03:35;31.73;;;15.53;;
17592;SDS011;8915;51.760;14.300;2023-01-23T13:06:27;28.37;;;15.50;;
17592;SDS011;8915;51.760;14.300;2023-01-23T13:09:02;29.20;;;15.73;;
17592;SDS011;8915;51.760;14.300;2023-01-23T13:11:37;30.47;;;16.20;;
17592;SDS011;8915;51.760;14.300;2023-01-23T13:14:15;32.13;;;16.37;;
17592;SDS011;8915;51.760;14.300;2023-01-23T13:16:45;29.40;;;14.40;;
17592;SDS011;8915;51.760;14.300;2023-01-23T13:19:19;29.73;;;16.13;;
17592;SDS011;8915;51.760;14.300;2023-01-23T13:22:10;30.17;;;15.60;;
17592;SDS011;8915;51.760;14.300;2023-01-23T13:24:42;29.10;;;16.00;;
17592;SDS011;8915;51.760;14.300;2023-01-23T13:27:35;30.60;;;15.40;;
17592;SDS011;8915;51.760;14.300;2023-01-23T13:30:04;29.83;;;15.50;;
17592;SDS011;8915;51.760;14.300;2023-01-23T13:32:57;30.13;;;15.23;;
17592;SDS011;8915;51.760;14.300;2023-01-23T13:38:27;27.63;;;15.30;;
17592;SDS011;8915;51.760;14.300;2023-01-23T13:43:53;32.63;;;15.37;;
17592;SDS011;8915;51.760;14.300;2023-01-23T13:46:22;28.73;;;15.17;;
17592;SDS011;8915;51.760;14.300;2023-01-23T13:48:58;27.40;;;14.67;;
17592;SDS011;8915;51.760;14.300;2023-01-23T13:51:47;30.87;;;14.67;;
17592;SDS011;8915;51.760;14.300;2023-01-23T13:54:15;28.97;;;14.83;;
17592;SDS011;8915;51.760;14.300;2023-01-23T13:57:04;28.37;;;14.93;;
17592;SDS011;8915;51.760;14.300;2023-01-23T13:59:33;26.17;;;14.37;;
17592;SDS011;8915;51.760;14.300;2023-01-23T14:02:06;27.87;;;14.27;;
17592;SDS011;8915;51.760;14.300;2023-01-23T14:05:04;30.13;;;15.67;;
17592;SDS011;8915;51.760;14.300;2023-01-23T14:07:39;28.50;;;14.57;;
17592;SDS011;8915;51.760;14.300;2023-01-23T14:10:14;28.80;;;13.63;;
17592;SDS011;8915;51.760;14.300;2023-01-23T14:12:45;24.60;;;13.70;;
17592;SDS011;8915;51.760;14.300;2023-01-23T14:15:17;24.10;;;13.17;;
17592;SDS011;8915;51.760;14.300;2023-01-23T14:18:12;29.10;;;14.40;;
17592;SDS011;8915;51.760;14.300;2023-01-23T14:20:44;31.67;;;14.30;;
17592;SDS011;8915;51.760;14.300;2023-01-23T14:23:16;27.43;;;14.40;;
17592;SDS011;8915;51.760;14.300;2023-01-23T14:25:49;26.47;;;14.83;;
17592;SDS011;8915;51.760;14.300;2023-01-23T14:28:17;27.43;;;15.10;;
17592;SDS011;8915;51.760;14.300;2023-01-23T14:30:51;28.90;;;14.63;;
17592;SDS011;8915;51.760;14.300;2023-01-23T14:33:19;33.40;;;14.47;;
17592;SDS011;8915;51.760;14.300;2023-01-23T14:35:46;27.23;;;14.77;;
17592;SDS011;8915;51.760;14.300;2023-01-23T14:38:15;30.70;;;15.37;;
17592;SDS011;8915;51.760;14.300;2023-01-23T14:40:47;31.13;;;15.17;;
17592;SDS011;8915;51.760;14.300;2023-01-23T14:43:15;27.07;;;13.83;;
17592;SDS011;8915;51.760;14.300;2023-01-23T14:45:45;25.83;;;13.70;;
17592;SDS011;8915;51.760;14.300;2023-01-23T14:48:14;26.63;;;14.60;;
17592;SDS011;8915;51.760;14.300;2023-01-23T14:50:43;24.23;;;14.03;;
17592;SDS011;8915;51.760;14.300;2023-01-23T14:53:14;29.07;;;15.30;;
17592;SDS011;8915;51.760;14.300;2023-01-23T14:55:47;30.10;;;15.10;;
17592;SDS011;8915;51.760;14.300;2023-01-23T14:58:17;26.60;;;14.67;;